Terminal Aerodrome Forecast
Issued by NWS

Home | Current Version | Previous Version | Text Only | Print | Product List | Glossary On
Versions: 1 2 3 4 5 6 7 8 9 10 11 12 13 14 15
902
FTUS42 KFFC 252329
TAFRYY
TAF
KRYY 252329Z 2600/2624 14003KT P6SM SCT250
     FM261400 13006KT P6SM FEW035
     FM261700 15004KT P6SM VCSH SCT045 PROB30 2620/2624 6SM -TSRA
      OVC035CB
      AMD NOT SKED 2604/2612=

USA.gov is the U.S. government's official web portal to all federal, state and local government web resources and services.